• Join FlightAware (Why Join?)
  • Login
  • US Flag 
12:50PM EDT


 

Airport Tracker/Info


-or-


 

Live Flight TrackerFlight Track Log ✈ THY2455 ✈ 17-Oct-2013 ✈ LTAF / ADA - LTBA / IST

Flight Track Log - Related Links

Times and Time Zones

All times are in EDT time to prevent confusion due to time zone crossing. See the THY2455 flight status page for this flight to view local times or setup timezone preferences in your user account.

Time Position Orientation Groundspeed Altitude Reporting Facility
EDT Latitude Longitude Course Direction KTS MPH feet Rate Location/Type
01:48AM 37.3648 34.7147 311° West  Level Estimated
01:49AM 37.4193 34.6335 310° West  Level Estimated
01:50AM 37.4737 34.5521 310° West  Level Estimated
01:51AM 37.5280 34.4706 310° West  Level Estimated
01:52AM 37.5823 34.3890 310° West  Level Estimated
01:53AM 37.6365 34.3072 310° West  Level Estimated
01:54AM 37.6907 34.2253 310° West  Level Estimated
01:55AM 37.7448 34.1433 310° West  Level Estimated
01:56AM 37.7988 34.0612 310° West  Level Estimated
01:57AM 37.8528 33.9790 310° West  Level Estimated
01:58AM 37.9068 33.8966 310° West  Level Estimated
01:59AM 37.9607 33.8142 310° West  Level Estimated
02:00AM 38.0145 33.7316 310° West  Level Estimated
02:01AM 38.0682 33.6489 310° West  Level Estimated
02:02AM 38.1219 33.5661 310° West  Level Estimated
02:03AM 38.1756 33.4831 309° West  Level Estimated
02:04AM 38.2292 33.4000 309° West  Level Estimated
02:05AM 38.2827 33.3168 309° West  Level Estimated
02:06AM 38.3362 33.2335 309° West  Level Estimated
02:07AM 38.3896 33.1500 309° West  Level Estimated
02:08AM 38.4430 33.0665 309° West  Level Estimated
02:09AM 38.4963 32.9828 309° West  Level Estimated
02:10AM 38.5495 32.8990 309° West  Level Estimated
02:11AM 38.6027 32.8150 309° West  Level Estimated
02:12AM 38.6558 32.7309 309° West  Level Estimated
02:13AM 38.7089 32.6468 309° West  Level Estimated
02:14AM 38.7618 32.5625 309° West  Level Estimated
02:15AM 38.8148 32.4780 309° West  Level Estimated
02:16AM 38.8676 32.3934 309° West  Level Estimated
02:17AM 38.9204 32.3088 309° West  Level Estimated
02:18AM 38.9732 32.2239 309° West  Level Estimated
02:19AM 39.0259 32.1390 309° West  Level Estimated
02:20AM 39.0785 32.0539 309° West  Level Estimated
02:21AM 39.1311 31.9687 309° West  Level Estimated
02:22AM 39.1836 31.8834 308° West  Level Estimated
02:23AM 39.2360 31.7980 308° West  Level Estimated
02:24AM 39.2884 31.7124 308° West  Level Estimated
02:25AM 39.3407 31.6267 308° West  Level Estimated
02:26AM 39.3930 31.5408 308° West  Level Estimated
02:27AM 39.4452 31.4549 308° West  Level Estimated
02:28AM 39.4973 31.3688 308° West  Level Estimated
02:29AM 39.5494 31.2826 308° West  Level Estimated
02:30AM 39.6014 31.1962 308° West  Level Estimated
02:31AM 39.6533 31.1097 308° West  Level Estimated
02:32AM 39.7052 31.0231 308° West  Level Estimated
02:33AM 39.7570 30.9364 308° West  Level Estimated
02:34AM 39.8087 30.8495 308° West  Level Estimated
02:35AM 39.8604 30.7625 308° West  Level Estimated
02:36AM 39.9120 30.6754 308° West  Level Estimated
02:37AM 39.9636 30.5881 308° West  Level Estimated
02:38AM 40.0150 30.5007 308° West  Level Estimated
02:39AM 40.0664 30.4132 308° West  Level Estimated
02:40AM 40.1178 30.3255 307° West  Level Estimated
02:41AM 40.1691 30.2377 307° West  Level Estimated
02:42AM 40.2203 30.1498 307° West  Level Estimated
02:43AM 40.2715 30.0617 307° West  Level Estimated
02:44AM 40.3225 29.9735 307° West  Level Estimated
02:45AM 40.3736 29.8852 307° West  Level Estimated
02:46AM 40.4245 29.7967 307° West  Level Estimated
02:47AM 40.4754 29.7082 307° West  Level Estimated
02:48AM 40.5262 29.6194 307° West  Level Estimated
02:49AM 40.5769 29.5306 307° West  Level Estimated
02:50AM 40.6276 29.4416 307° West  Level Estimated
02:51AM 40.6782 29.3524 307° West  Level Estimated
02:52AM 40.7288 29.2632 307° West  Level Estimated
02:53AM 40.7792 29.1737 307° West  Level Estimated
02:54AM 40.8296 29.0842 307° West  Level Estimated
02:55AM 40.8800 28.9945 307° West  Level Estimated
02:56AM 40.9302 28.9047 307° West  Level Estimated
02:57AM 40.9769 28.8211 306° West  Level Estimated
02:58AM 40.9769 28.8211 21° North  Level Estimated
02:59AM 40.9769 28.8211 21° North  Level Estimated
03:00AM 40.9769 28.8211 21° North  Level Estimated
03:01AM 40.9769 28.8211 21° North  Level Estimated
03:02AM 40.9769 28.8211 21° North  Level Estimated
03:03AM 40.9769 28.8211 21° North  Level Estimated
03:04AM 40.9769 28.8211 21° North  Level Estimated
03:05AM 40.9769 28.8211 21° North  Level Estimated
03:06AM 40.9769 28.8211 21° North  Level Estimated
03:07AM 40.9769 28.8211 21° North  Level Estimated
03:08AM 40.9769 28.8211 21° North  Level Estimated
03:09AM 40.9769 28.8211 21° North  Level Estimated
03:10AM 40.9769 28.8211 21° North  Level Estimated
03:11AM 40.9769 28.8211 21° North  Level Estimated
03:12AM 40.9769 28.8211 21° North  Level Estimated
03:13AM 40.9769 28.8211 21° North  Level Estimated